createdAt,value
2018-05-15T00:01:25.175Z,68.10
2018-05-15T00:03:53.005Z,68.20
2018-05-15T00:06:20.468Z,68.60
2018-05-15T00:08:47.928Z,68.80
2018-05-15T00:11:15.430Z,69.10
2018-05-15T00:13:42.882Z,69.60
2018-05-15T00:16:10.346Z,70.20
2018-05-15T00:18:37.809Z,70.20
2018-05-15T00:21:05.253Z,70.20
2018-05-15T00:23:32.699Z,70.00
2018-05-15T00:26:00.163Z,69.60
2018-05-15T00:28:27.689Z,69.30
2018-05-15T00:30:55.136Z,68.80
2018-05-15T00:33:22.945Z,68.40
2018-05-15T00:35:50.432Z,68.60
2018-05-15T00:38:17.891Z,68.50
2018-05-15T00:40:45.730Z,68.50
2018-05-15T00:43:13.174Z,68.60
2018-05-15T00:45:40.606Z,68.70
2018-05-15T00:48:08.166Z,68.80
2018-05-15T00:50:35.618Z,68.90
2018-05-15T00:53:03.455Z,69.20
2018-05-15T00:55:42.614Z,69.90
2018-05-15T00:58:10.827Z,70.50
2018-05-15T01:00:38.547Z,70.50
2018-05-15T01:03:05.996Z,70.30
2018-05-15T01:05:33.435Z,70.50
2018-05-15T01:08:00.886Z,70.60
2018-05-15T01:10:28.342Z,70.70
2018-05-15T01:12:56.082Z,70.50
2018-05-15T01:15:23.536Z,70.30
2018-05-15T01:17:51.255Z,71.00
2018-05-15T01:20:18.698Z,74.00
2018-05-15T01:22:46.175Z,73.90
2018-05-15T01:25:13.627Z,74.30
2018-05-15T01:27:41.075Z,74.90
2018-05-15T01:30:08.511Z,75.50
2018-05-15T01:32:35.982Z,76.80
2018-05-15T01:35:03.485Z,77.10
2018-05-15T01:37:31.267Z,78.00
2018-05-15T01:39:58.750Z,78.10
2018-05-15T01:42:26.332Z,78.60
2018-05-15T01:44:53.768Z,79.00
2018-05-15T01:47:21.212Z,79.50
2018-05-15T01:49:48.688Z,79.30
2018-05-15T01:52:16.130Z,80.20
2018-05-15T01:54:43.575Z,80.50
2018-05-15T01:57:11.373Z,80.70
2018-05-15T01:59:38.919Z,80.80
2018-05-15T02:02:06.365Z,80.50
2018-05-15T02:04:33.813Z,80.80
2018-05-15T02:07:01.283Z,80.70
2018-05-15T02:09:29.102Z,80.70
2018-05-15T02:11:56.533Z,80.70
2018-05-15T02:14:24.011Z,81.30
2018-05-15T02:16:51.558Z,81.30
2018-05-15T02:19:19.219Z,81.80
2018-05-15T02:21:46.689Z,82.00
2018-05-15T02:24:14.275Z,82.20
2018-05-15T02:26:41.728Z,82.40
2018-05-15T02:29:09.220Z,82.60
2018-05-15T02:31:36.676Z,82.80
2018-05-15T02:34:04.134Z,83.10
2018-05-15T02:36:31.574Z,83.10
2018-05-15T02:38:59.003Z,83.20
2018-05-15T02:41:26.476Z,83.20
2018-05-15T02:43:54.050Z,83.40
2018-05-15T02:46:21.488Z,83.70
2018-05-15T02:48:48.932Z,83.60
2018-05-15T02:51:16.385Z,83.80
2018-05-15T02:53:43.905Z,83.60
2018-05-15T02:56:11.341Z,83.70
2018-05-15T02:58:38.808Z,84.30
2018-05-15T03:01:06.255Z,84.50
2018-05-15T03:03:34.056Z,84.40
2018-05-15T03:06:01.623Z,84.60
2018-05-15T03:08:29.383Z,84.40
2018-05-15T03:10:56.872Z,85.20
2018-05-15T03:13:24.312Z,84.30
2018-05-15T03:15:51.758Z,84.30
2018-05-15T03:18:19.260Z,84.30
2018-05-15T03:20:46.700Z,84.40
2018-05-15T03:23:14.168Z,84.40
2018-05-15T03:25:41.629Z,85.40
2018-05-15T03:28:09.072Z,85.30
2018-05-15T03:30:36.629Z,85.10
2018-05-15T03:33:04.046Z,85.10
2018-05-15T03:35:31.508Z,85.10
2018-05-15T03:37:58.952Z,85.10
2018-05-15T03:40:26.406Z,85.10
2018-05-15T03:42:53.894Z,84.90
2018-05-15T03:45:21.335Z,84.40
2018-05-15T03:47:49.187Z,84.70
2018-05-15T03:50:16.627Z,84.20
2018-05-15T03:52:44.063Z,84.50
2018-05-15T03:55:11.516Z,84.70
2018-05-15T03:57:38.947Z,85.00
2018-05-15T04:00:07.204Z,86.00
2018-05-15T04:02:46.497Z,85.50
2018-05-15T04:05:25.793Z,85.80
2018-05-15T04:10:52.762Z,86.30
2018-05-15T04:13:20.357Z,86.60
2018-05-15T04:15:47.819Z,86.70
2018-05-15T04:18:15.280Z,87.00
2018-05-15T04:20:42.712Z,88.00
2018-05-15T04:23:10.176Z,87.40
2018-05-15T04:25:37.614Z,87.70
2018-05-15T04:28:05.130Z,87.90
2018-05-15T04:30:32.649Z,88.10
2018-05-15T04:33:00.109Z,88.30
2018-05-15T04:35:27.569Z,88.20
2018-05-15T04:37:55.077Z,88.30
2018-05-15T04:40:22.519Z,88.40
2018-05-15T04:42:50.283Z,88.60
2018-05-15T04:45:17.734Z,88.80
2018-05-15T04:47:45.195Z,89.00
2018-05-15T04:50:12.640Z,89.40
2018-05-15T04:52:40.081Z,89.60
2018-05-15T04:55:07.530Z,89.60
2018-05-15T04:57:34.963Z,89.70
2018-05-15T05:00:02.439Z,89.70
2018-05-15T05:02:29.889Z,89.70
2018-05-15T05:04:57.322Z,89.40
2018-05-15T05:07:24.783Z,89.30
2018-05-15T05:09:52.233Z,89.70
2018-05-15T05:12:19.706Z,89.60
2018-05-15T05:14:47.148Z,89.00
2018-05-15T05:17:14.583Z,88.70
2018-05-15T05:19:42.050Z,88.60
2018-05-15T05:22:09.664Z,88.80
2018-05-15T05:24:37.117Z,89.00
2018-05-15T05:27:04.600Z,89.30
2018-05-15T05:29:32.047Z,89.50
2018-05-15T05:31:59.495Z,89.90
2018-05-15T05:34:26.943Z,90.00
2018-05-15T05:36:54.457Z,90.10
2018-05-15T05:39:21.909Z,90.10
2018-05-15T05:41:49.343Z,90.20
2018-05-15T05:44:16.803Z,90.10
2018-05-15T05:46:44.257Z,90.00
2018-05-15T05:49:11.819Z,90.00
2018-05-15T05:51:39.263Z,90.30
2018-05-15T05:54:06.704Z,89.60
2018-05-15T05:56:34.152Z,89.10
2018-05-15T05:59:01.617Z,88.60
2018-05-15T06:01:29.095Z,88.90
2018-05-15T06:03:56.898Z,88.70
2018-05-15T06:06:24.376Z,88.40
2018-05-15T06:08:51.836Z,88.00
2018-05-15T06:11:20.085Z,87.00
2018-05-15T06:13:47.535Z,87.00
2018-05-15T06:16:15.013Z,87.90
2018-05-15T06:18:42.449Z,87.10
2018-05-15T06:21:10.673Z,87.30
2018-05-15T06:23:39.026Z,87.20
2018-05-15T06:26:06.487Z,87.40
2018-05-15T06:28:33.923Z,87.30
2018-05-15T06:31:02.151Z,87.50
2018-05-15T06:33:29.620Z,87.40
2018-05-15T06:35:57.072Z,87.10
2018-05-15T06:38:24.564Z,87.40
2018-05-15T06:40:52.487Z,87.20
2018-05-15T06:43:19.954Z,85.80
2018-05-15T06:45:47.399Z,84.40
2018-05-15T06:48:14.855Z,83.30
2018-05-15T06:50:42.309Z,82.70
2018-05-15T06:53:10.525Z,82.60
2018-05-15T06:55:38.147Z,82.20
2018-05-15T06:58:05.607Z,82.40
2018-05-15T07:00:33.067Z,82.50
2018-05-15T07:03:00.537Z,82.60
2018-05-15T07:05:27.988Z,81.40
2018-05-15T07:07:55.843Z,82.30
2018-05-15T07:10:23.306Z,81.30
2018-05-15T07:12:50.744Z,79.60
2018-05-15T07:15:18.206Z,78.70
2018-05-15T07:17:45.654Z,77.80
2018-05-15T07:20:13.158Z,76.50
2018-05-15T07:22:40.611Z,76.10
2018-05-15T07:25:08.043Z,74.80
2018-05-15T07:27:35.520Z,74.30
2018-05-15T07:30:03.001Z,73.80
2018-05-15T07:32:30.457Z,71.80
2018-05-15T07:34:57.895Z,72.30
2018-05-15T07:37:25.343Z,72.60
2018-05-15T07:39:52.808Z,71.30
2018-05-15T07:42:20.262Z,72.60
2018-05-15T07:44:47.743Z,72.30
2018-05-15T07:47:15.308Z,71.40
2018-05-15T07:49:43.096Z,70.60
2018-05-15T07:52:10.545Z,70.20
2018-05-15T07:54:38.084Z,69.40
2018-05-15T07:57:05.435Z,69.40
2018-05-15T07:59:32.960Z,68.40
2018-05-15T08:02:00.798Z,69.30
2018-05-15T08:04:28.298Z,69.70
2018-05-15T08:06:55.735Z,69.10
2018-05-15T08:09:23.231Z,67.20
2018-05-15T08:11:50.688Z,66.70
2018-05-15T08:14:18.512Z,66.90
2018-05-15T08:16:46.056Z,65.80
2018-05-15T08:19:13.503Z,64.30
2018-05-15T08:21:40.947Z,65.10
2018-05-15T08:24:08.413Z,64.90
2018-05-15T08:26:35.907Z,65.90
2018-05-15T08:29:03.344Z,65.30
2018-05-15T08:31:30.808Z,65.20
2018-05-15T08:33:58.287Z,64.70
2018-05-15T08:36:26.004Z,64.30
2018-05-15T08:38:53.457Z,63.80
2018-05-15T08:41:20.923Z,63.50
2018-05-15T08:43:48.378Z,63.40
2018-05-15T08:46:15.821Z,62.80
2018-05-15T08:48:43.286Z,62.40
2018-05-15T08:51:10.736Z,63.80
2018-05-15T08:53:38.180Z,62.80
2018-05-15T08:56:06.395Z,61.50
2018-05-15T08:58:33.850Z,61.50
2018-05-15T09:01:01.463Z,60.40
2018-05-15T09:03:29.002Z,60.40
2018-05-15T09:05:56.464Z,61.00
2018-05-15T09:08:23.916Z,61.20
2018-05-15T09:10:51.360Z,58.80
2018-05-15T09:13:18.820Z,58.00
2018-05-15T09:15:46.261Z,58.00
2018-05-15T09:18:13.776Z,58.30
2018-05-15T09:20:41.235Z,57.60
2018-05-15T09:23:09.431Z,57.20
2018-05-15T09:25:36.902Z,57.10
2018-05-15T09:28:05.120Z,55.00
2018-05-15T09:30:32.553Z,55.00
2018-05-15T09:33:00.007Z,54.60
2018-05-15T09:35:27.468Z,54.70
2018-05-15T09:37:55.102Z,54.30
2018-05-15T09:40:22.537Z,54.20
2018-05-15T09:42:49.993Z,52.70
2018-05-15T09:45:17.436Z,52.80
2018-05-15T09:47:44.895Z,50.60
2018-05-15T09:50:12.345Z,49.70
2018-05-15T09:52:39.802Z,48.90
2018-05-15T09:55:07.329Z,48.40
2018-05-15T09:57:34.773Z,46.70
2018-05-15T10:00:02.220Z,46.60
2018-05-15T10:02:29.692Z,46.60
2018-05-15T10:04:57.228Z,46.50
2018-05-15T10:07:24.673Z,45.20
2018-05-15T10:09:52.132Z,45.30
2018-05-15T10:12:19.608Z,44.90
2018-05-15T10:14:47.057Z,44.90
2018-05-15T10:17:14.496Z,44.30
2018-05-15T10:19:41.927Z,42.80
2018-05-15T10:22:09.379Z,42.60
2018-05-15T10:24:36.916Z,41.40
2018-05-15T10:27:04.368Z,40.00
2018-05-15T10:29:32.167Z,39.50
2018-05-15T10:31:59.603Z,39.60
2018-05-15T10:34:27.056Z,39.00
2018-05-15T10:36:54.494Z,38.50
2018-05-15T10:39:22.708Z,40.10
2018-05-15T10:41:50.165Z,40.10
2018-05-15T10:44:17.842Z,40.30
2018-05-15T10:46:45.308Z,39.50
2018-05-15T10:49:12.752Z,38.10
2018-05-15T10:51:40.224Z,37.70
2018-05-15T10:54:07.655Z,36.90
2018-05-15T10:56:35.099Z,38.10
2018-05-15T10:59:02.567Z,37.70
2018-05-15T11:01:30.788Z,37.30
2018-05-15T11:03:58.266Z,37.30
2018-05-15T11:06:25.721Z,37.00
2018-05-15T11:08:53.169Z,36.80
2018-05-15T11:11:20.635Z,37.60
2018-05-15T11:13:48.069Z,38.80
2018-05-15T11:16:16.281Z,37.70
2018-05-15T11:18:43.736Z,37.60
2018-05-15T11:21:22.978Z,36.30
2018-05-15T11:24:02.162Z,36.30
2018-05-15T11:26:29.624Z,38.90
2018-05-15T11:28:57.079Z,38.70
2018-05-15T11:31:24.615Z,37.70
2018-05-15T11:33:52.056Z,37.50
2018-05-15T11:36:19.495Z,36.70
2018-05-15T11:38:46.943Z,35.60
2018-05-15T11:41:14.476Z,34.90
2018-05-15T11:43:41.929Z,35.40
2018-05-15T11:46:09.380Z,35.60
2018-05-15T11:48:37.211Z,35.70
2018-05-15T11:51:05.118Z,35.50
2018-05-15T11:53:31.705Z,34.60
2018-05-15T11:55:59.222Z,35.20
2018-05-15T11:58:26.586Z,34.90
2018-05-15T12:00:54.031Z,35.30
2018-05-15T12:03:21.482Z,35.90
2018-05-15T12:05:48.930Z,35.90
2018-05-15T12:08:16.443Z,36.10
2018-05-15T12:10:43.834Z,36.70
2018-05-15T12:13:11.367Z,36.50
2018-05-15T12:15:38.825Z,35.50
2018-05-15T12:18:07.033Z,35.30
2018-05-15T12:20:34.467Z,35.30
2018-05-15T12:23:02.056Z,35.10
2018-05-15T12:25:29.900Z,33.80
2018-05-15T12:27:57.410Z,32.80
2018-05-15T12:30:24.804Z,32.50
2018-05-15T12:32:52.239Z,32.00
2018-05-15T12:35:19.692Z,32.10
2018-05-15T12:37:47.133Z,32.60
2018-05-15T12:40:14.610Z,33.10
2018-05-15T12:42:42.051Z,32.40
2018-05-15T12:45:09.592Z,32.00
2018-05-15T12:47:37.061Z,31.60
2018-05-15T12:50:04.492Z,30.70
2018-05-15T12:52:31.996Z,30.60
2018-05-15T12:54:59.455Z,32.70
2018-05-15T12:57:26.905Z,34.70
2018-05-15T12:59:54.356Z,35.60
2018-05-15T13:02:21.819Z,36.90
2018-05-15T13:04:49.289Z,37.30
2018-05-15T13:07:16.739Z,37.70
2018-05-15T13:09:44.163Z,38.30
2018-05-15T13:12:11.613Z,38.70
2018-05-15T13:14:39.043Z,38.00
2018-05-15T13:17:06.503Z,38.90
2018-05-15T13:19:33.962Z,39.30
2018-05-15T13:22:01.409Z,38.90
2018-05-15T13:24:28.935Z,37.80
2018-05-15T13:26:56.527Z,37.50
2018-05-15T13:29:23.996Z,35.20
2018-05-15T13:31:51.448Z,33.40
2018-05-15T13:34:18.902Z,33.40
2018-05-15T13:36:46.357Z,33.30
2018-05-15T13:39:13.861Z,32.20
2018-05-15T13:41:41.243Z,31.20
2018-05-15T13:44:08.695Z,31.40
2018-05-15T13:46:36.145Z,31.90
2018-05-15T13:49:03.599Z,31.70
2018-05-15T13:51:31.066Z,31.60
2018-05-15T13:53:58.516Z,32.50
2018-05-15T13:56:25.955Z,33.80
2018-05-15T13:58:53.400Z,34.50
2018-05-15T14:01:20.878Z,35.00
2018-05-15T14:03:48.367Z,35.20
2018-05-15T14:06:15.920Z,35.30
2018-05-15T14:08:43.655Z,35.80
2018-05-15T14:11:11.152Z,34.80
2018-05-15T14:13:38.699Z,34.00
2018-05-15T14:16:06.496Z,34.20
2018-05-15T14:18:33.980Z,33.00
2018-05-15T14:21:01.415Z,32.00
2018-05-15T14:23:28.860Z,31.80
2018-05-15T14:25:56.328Z,31.90
2018-05-15T14:28:23.788Z,32.30
2018-05-15T14:30:51.243Z,31.30
2018-05-15T14:33:18.703Z,30.40
2018-05-15T14:35:46.132Z,30.70
2018-05-15T14:38:14.131Z,32.40
2018-05-15T14:40:41.560Z,33.90
2018-05-15T14:43:21.292Z,35.90
2018-05-15T14:45:49.156Z,37.30
2018-05-15T14:48:17.001Z,37.20
2018-05-15T14:51:07.199Z,37.70
2018-05-15T14:53:34.656Z,38.40
2018-05-15T14:56:02.100Z,38.30
2018-05-15T14:58:29.760Z,38.20
2018-05-15T15:00:57.256Z,37.50
2018-05-15T15:03:24.728Z,37.40
2018-05-15T15:05:52.188Z,37.00
2018-05-15T15:08:19.653Z,36.90
2018-05-15T15:10:47.083Z,35.70
2018-05-15T15:13:14.540Z,35.80
2018-05-15T15:15:41.994Z,36.80
2018-05-15T15:18:09.446Z,36.40
2018-05-15T15:20:36.883Z,37.10
2018-05-15T15:23:04.329Z,37.80
2018-05-15T15:25:31.779Z,39.20
2018-05-15T15:27:59.221Z,40.60
2018-05-15T15:30:26.868Z,40.60
2018-05-15T15:32:54.307Z,39.90
2018-05-15T15:35:21.903Z,39.50
2018-05-15T15:37:49.370Z,39.60
2018-05-15T15:40:16.809Z,40.60
2018-05-15T15:42:44.533Z,41.50
2018-05-15T15:45:11.964Z,41.80
2018-05-15T15:47:39.423Z,41.90
2018-05-15T15:50:06.875Z,41.30
2018-05-15T15:52:34.312Z,41.10
2018-05-15T15:55:01.766Z,41.40
2018-05-15T15:57:29.285Z,41.50
2018-05-15T15:59:56.720Z,41.80
2018-05-15T16:02:24.177Z,42.30
2018-05-15T16:04:51.629Z,42.50
2018-05-15T16:07:19.088Z,42.10
2018-05-15T16:09:46.551Z,42.60
2018-05-15T16:12:14.126Z,43.40
2018-05-15T16:14:41.492Z,43.70
2018-05-15T16:17:08.946Z,43.90
2018-05-15T16:19:36.402Z,43.70
2018-05-15T16:22:03.868Z,43.40
2018-05-15T16:24:31.296Z,42.90
2018-05-15T16:26:58.830Z,42.00
2018-05-15T16:29:26.318Z,42.20
2018-05-15T16:31:54.556Z,41.20
2018-05-15T16:34:21.989Z,41.00
2018-05-15T16:36:49.425Z,40.50
2018-05-15T16:39:16.977Z,40.80
2018-05-15T16:41:44.440Z,40.70
2018-05-15T16:44:11.952Z,40.50
2018-05-15T16:46:39.398Z,40.60
2018-05-15T16:49:06.844Z,41.00
2018-05-15T16:51:34.670Z,41.60
2018-05-15T16:54:02.108Z,41.70
2018-05-15T16:56:29.561Z,42.00
2018-05-15T16:58:57.001Z,42.20
2018-05-15T17:01:24.639Z,42.20
2018-05-15T17:03:52.106Z,42.70
2018-05-15T17:06:19.837Z,43.00
2018-05-15T17:08:47.308Z,43.40
2018-05-15T17:11:14.748Z,43.40
2018-05-15T17:13:42.297Z,43.60
2018-05-15T17:16:09.629Z,44.00
2018-05-15T17:18:37.080Z,44.00
2018-05-15T17:21:04.536Z,44.10
2018-05-15T17:23:31.975Z,44.80
2018-05-15T17:25:59.543Z,44.90
2018-05-15T17:28:27.001Z,45.40
2018-05-15T17:30:54.468Z,45.70
2018-05-15T17:33:21.998Z,46.00
2018-05-15T17:35:49.423Z,46.30
2018-05-15T17:38:16.857Z,46.70
2018-05-15T17:40:44.339Z,47.30
2018-05-15T17:43:11.760Z,47.80
2018-05-15T17:45:39.207Z,48.20
2018-05-15T17:48:06.657Z,48.50
2018-05-15T17:50:34.115Z,48.70
2018-05-15T17:53:01.637Z,49.00
2018-05-15T17:55:29.033Z,49.00
2018-05-15T17:57:56.484Z,48.90
2018-05-15T18:00:23.923Z,49.20
2018-05-15T18:02:53.180Z,49.00
2018-05-15T18:05:20.636Z,49.00
2018-05-15T18:07:48.100Z,48.90
2018-05-15T18:10:15.558Z,49.30
2018-05-15T18:12:42.988Z,49.30
2018-05-15T18:15:10.485Z,49.60
2018-05-15T18:17:37.880Z,49.70
2018-05-15T18:20:05.324Z,49.50
2018-05-15T18:22:32.772Z,49.70
2018-05-15T18:25:00.229Z,49.80
2018-05-15T18:27:27.675Z,50.00
2018-05-15T18:29:55.115Z,50.00
2018-05-15T18:32:22.728Z,50.30
2018-05-15T18:34:50.179Z,50.50
2018-05-15T18:37:17.943Z,51.10
2018-05-15T18:39:45.665Z,50.30
2018-05-15T18:42:13.125Z,50.50
2018-05-15T18:44:40.778Z,50.70
2018-05-15T18:47:08.234Z,50.60
2018-05-15T18:49:35.695Z,51.50
2018-05-15T18:52:03.168Z,52.60
2018-05-15T18:54:30.627Z,53.90
2018-05-15T18:56:58.147Z,56.20
2018-05-15T18:59:25.609Z,57.50
2018-05-15T19:01:53.445Z,60.30
2018-05-15T19:04:21.646Z,66.20
2018-05-15T19:06:49.196Z,66.10
2018-05-15T19:09:16.623Z,68.60
2018-05-15T19:11:44.098Z,70.00
2018-05-15T19:14:11.540Z,71.60
2018-05-15T19:16:38.984Z,72.20
2018-05-15T19:19:06.440Z,72.10
2018-05-15T19:21:33.893Z,72.40
2018-05-15T19:24:01.347Z,74.20
2018-05-15T19:26:28.798Z,74.80
2018-05-15T19:28:56.295Z,75.60
2018-05-15T19:31:29.358Z,76.20
2018-05-15T19:33:56.813Z,77.00
2018-05-15T19:36:29.984Z,77.50
2018-05-15T19:39:03.872Z,79.60
2018-05-15T19:41:31.349Z,79.00
2018-05-15T19:43:58.788Z,80.00
2018-05-15T19:46:26.226Z,80.40
2018-05-15T19:48:53.691Z,80.50
2018-05-15T19:51:21.148Z,80.40
2018-05-15T19:53:48.612Z,80.40
2018-05-15T19:56:16.118Z,80.70
2018-05-15T19:58:43.586Z,81.90
2018-05-15T20:01:11.051Z,82.40
2018-05-15T20:03:38.493Z,83.10
2018-05-15T20:06:05.952Z,83.40
2018-05-15T20:08:33.480Z,83.50
2018-05-15T20:11:00.920Z,83.00
2018-05-15T20:13:28.367Z,83.20
2018-05-15T20:15:55.814Z,83.60
2018-05-15T20:18:23.284Z,83.90
2018-05-15T20:20:51.742Z,84.20
2018-05-15T20:23:19.176Z,84.50
2018-05-15T20:25:46.801Z,85.10
2018-05-15T20:28:14.403Z,85.30
2018-05-15T20:30:41.843Z,85.30
2018-05-15T20:33:09.649Z,85.60
2018-05-15T20:35:37.105Z,86.30
2018-05-15T20:38:04.556Z,86.40
2018-05-15T20:40:31.999Z,86.80
2018-05-15T20:42:59.457Z,87.10
2018-05-15T20:45:26.922Z,87.40
2018-05-15T20:47:54.428Z,89.00
2018-05-15T20:50:21.877Z,88.40
2018-05-15T20:52:49.347Z,88.70
2018-05-15T20:55:16.812Z,89.10
2018-05-15T20:57:44.251Z,89.80
2018-05-15T21:00:11.695Z,90.00
2018-05-15T21:02:39.157Z,89.70
2018-05-15T21:05:06.607Z,89.50
2018-05-15T21:07:34.139Z,89.10
2018-05-15T21:10:01.606Z,88.60
2018-05-15T21:12:29.081Z,88.20
2018-05-15T21:14:56.530Z,88.40
2018-05-15T21:17:23.976Z,88.60
2018-05-15T21:19:51.504Z,88.90
2018-05-15T21:22:18.954Z,88.60
2018-05-15T21:24:46.412Z,88.60
2018-05-15T21:27:13.842Z,88.50
2018-05-15T21:29:41.305Z,88.60
2018-05-15T21:32:08.749Z,88.40
2018-05-15T21:34:36.180Z,88.70
2018-05-15T21:37:03.695Z,89.10
2018-05-15T21:39:31.128Z,89.20
2018-05-15T21:41:59.615Z,89.20
2018-05-15T21:44:27.073Z,89.20
2018-05-15T21:46:54.512Z,88.70
2018-05-15T21:49:21.972Z,88.60
2018-05-15T21:51:49.664Z,88.80
2018-05-15T21:54:17.098Z,88.60
2018-05-15T21:56:44.594Z,88.40
2018-05-15T21:59:12.043Z,89.10
2018-05-15T22:01:39.499Z,89.90
2018-05-15T22:04:07.036Z,90.60
2018-05-15T22:06:34.484Z,90.40
2018-05-15T22:09:01.943Z,90.30
2018-05-15T22:11:28.974Z,90.10
2018-05-15T22:14:08.166Z,90.00
2018-05-15T22:16:47.457Z,90.10
2018-05-15T22:19:26.754Z,90.10
2018-05-15T22:22:06.041Z,90.40
2018-05-15T22:24:34.582Z,90.90
2018-05-15T22:27:02.023Z,90.80
2018-05-15T22:29:29.480Z,91.00
2018-05-15T22:31:57.369Z,91.30
2018-05-15T22:34:24.810Z,91.40
2018-05-15T22:36:52.252Z,91.60
2018-05-15T22:39:19.836Z,91.90
2018-05-15T22:41:47.307Z,92.10
2018-05-15T22:44:14.761Z,92.00
2018-05-15T22:46:42.205Z,91.70
2018-05-15T22:49:09.647Z,91.50
2018-05-15T22:51:37.096Z,91.40
2018-05-15T22:54:04.548Z,91.60
2018-05-15T22:56:32.010Z,91.40
2018-05-15T22:58:59.455Z,91.40
2018-05-15T23:01:26.916Z,91.30
2018-05-15T23:03:54.359Z,91.40
2018-05-15T23:06:21.912Z,91.40
2018-05-15T23:08:49.255Z,91.40
2018-05-15T23:11:17.177Z,91.40
2018-05-15T23:13:44.656Z,91.40
2018-05-15T23:16:12.092Z,91.50
2018-05-15T23:18:39.562Z,91.60
2018-05-15T23:21:07.028Z,91.80
2018-05-15T23:23:34.476Z,92.00
2018-05-15T23:26:01.922Z,91.90
2018-05-15T23:28:29.360Z,92.00
2018-05-15T23:30:56.830Z,92.40
2018-05-15T23:33:24.271Z,92.40
2018-05-15T23:35:51.792Z,92.30
2018-05-15T23:38:19.260Z,92.20
2018-05-15T23:40:46.718Z,92.00
2018-05-15T23:43:14.263Z,92.10
2018-05-15T23:45:41.709Z,91.70
2018-05-15T23:48:09.150Z,91.10
2018-05-15T23:50:36.630Z,91.10
2018-05-15T23:53:04.092Z,91.50
2018-05-15T23:55:31.555Z,91.60
2018-05-15T23:57:59.009Z,91.50
